sensor_id;sensor_type;location;lat;lon;timestamp;P1;durP1;ratioP1;P2;durP2;ratioP2
8993;SDS011;4532;50.886;4.700;2022-07-06T00:01:21;4.35;;;1.67;;
8993;SDS011;4532;50.886;4.700;2022-07-06T00:03:49;5.93;;;2.00;;
8993;SDS011;4532;50.886;4.700;2022-07-06T00:06:21;5.68;;;2.30;;
8993;SDS011;4532;50.886;4.700;2022-07-06T00:08:52;3.58;;;1.85;;
8993;SDS011;4532;50.886;4.700;2022-07-06T00:11:20;5.40;;;1.80;;
8993;SDS011;4532;50.886;4.700;2022-07-06T00:13:53;4.43;;;1.60;;
8993;SDS011;4532;50.886;4.700;2022-07-06T00:16:23;3.08;;;1.80;;
8993;SDS011;4532;50.886;4.700;2022-07-06T00:18:50;4.78;;;1.80;;
8993;SDS011;4532;50.886;4.700;2022-07-06T00:21:18;3.13;;;2.00;;
8993;SDS011;4532;50.886;4.700;2022-07-06T00:23:47;2.60;;;1.60;;
8993;SDS011;4532;50.886;4.700;2022-07-06T00:26:15;3.65;;;1.67;;
8993;SDS011;4532;50.886;4.700;2022-07-06T00:28:42;4.28;;;1.88;;
8993;SDS011;4532;50.886;4.700;2022-07-06T00:31:09;2.53;;;1.65;;
8993;SDS011;4532;50.886;4.700;2022-07-06T00:33:37;4.50;;;2.30;;
8993;SDS011;4532;50.886;4.700;2022-07-06T00:36:04;6.38;;;1.90;;
8993;SDS011;4532;50.886;4.700;2022-07-06T00:38:32;2.28;;;1.60;;
8993;SDS011;4532;50.886;4.700;2022-07-06T00:41:02;2.83;;;1.65;;
8993;SDS011;4532;50.886;4.700;2022-07-06T00:43:47;3.63;;;1.98;;
8993;SDS011;4532;50.886;4.700;2022-07-06T00:46:15;2.80;;;1.77;;
8993;SDS011;4532;50.886;4.700;2022-07-06T00:48:43;5.05;;;1.67;;
8993;SDS011;4532;50.886;4.700;2022-07-06T00:51:13;3.58;;;1.77;;
8993;SDS011;4532;50.886;4.700;2022-07-06T00:53:41;2.13;;;1.92;;
8993;SDS011;4532;50.886;4.700;2022-07-06T00:56:09;3.03;;;1.60;;
8993;SDS011;4532;50.886;4.700;2022-07-06T00:58:37;3.60;;;1.65;;
8993;SDS011;4532;50.886;4.700;2022-07-06T01:01:04;4.45;;;2.00;;
8993;SDS011;4532;50.886;4.700;2022-07-06T01:03:32;2.67;;;1.88;;
8993;SDS011;4532;50.886;4.700;2022-07-06T01:06:01;3.13;;;1.88;;
8993;SDS011;4532;50.886;4.700;2022-07-06T01:08:29;4.20;;;1.80;;
8993;SDS011;4532;50.886;4.700;2022-07-06T01:10:56;3.03;;;1.80;;
8993;SDS011;4532;50.886;4.700;2022-07-06T01:13:24;2.33;;;1.85;;
8993;SDS011;4532;50.886;4.700;2022-07-06T01:15:53;2.50;;;1.95;;
8993;SDS011;4532;50.886;4.700;2022-07-06T01:18:20;3.15;;;1.60;;
8993;SDS011;4532;50.886;4.700;2022-07-06T01:20:49;2.97;;;1.80;;
8993;SDS011;4532;50.886;4.700;2022-07-06T01:23:16;3.22;;;2.10;;
8993;SDS011;4532;50.886;4.700;2022-07-06T01:25:43;5.30;;;2.38;;
8993;SDS011;4532;50.886;4.700;2022-07-06T01:28:13;3.33;;;2.40;;
8993;SDS011;4532;50.886;4.700;2022-07-06T01:30:40;3.95;;;1.83;;
8993;SDS011;4532;50.886;4.700;2022-07-06T01:33:07;3.42;;;1.92;;
8993;SDS011;4532;50.886;4.700;2022-07-06T01:35:34;2.10;;;1.90;;
8993;SDS011;4532;50.886;4.700;2022-07-06T01:38:03;3.63;;;1.88;;
8993;SDS011;4532;50.886;4.700;2022-07-06T01:40:35;2.40;;;1.98;;
8993;SDS011;4532;50.886;4.700;2022-07-06T01:43:02;3.55;;;2.15;;
8993;SDS011;4532;50.886;4.700;2022-07-06T01:45:32;3.22;;;1.85;;
8993;SDS011;4532;50.886;4.700;2022-07-06T01:48:00;2.97;;;1.95;;
8993;SDS011;4532;50.886;4.700;2022-07-06T01:50:31;3.08;;;1.90;;
8993;SDS011;4532;50.886;4.700;2022-07-06T01:53:01;1.77;;;1.67;;
8993;SDS011;4532;50.886;4.700;2022-07-06T01:55:34;4.07;;;2.10;;
8993;SDS011;4532;50.886;4.700;2022-07-06T01:58:01;3.65;;;2.00;;
8993;SDS011;4532;50.886;4.700;2022-07-06T02:00:28;5.20;;;2.20;;
8993;SDS011;4532;50.886;4.700;2022-07-06T02:02:55;3.25;;;2.17;;
8993;SDS011;4532;50.886;4.700;2022-07-06T02:05:25;4.00;;;2.13;;
8993;SDS011;4532;50.886;4.700;2022-07-06T02:07:55;2.33;;;2.13;;
8993;SDS011;4532;50.886;4.700;2022-07-06T02:10:27;4.03;;;2.25;;
8993;SDS011;4532;50.886;4.700;2022-07-06T02:12:56;2.63;;;2.20;;
8993;SDS011;4532;50.886;4.700;2022-07-06T02:15:23;2.42;;;2.00;;
8993;SDS011;4532;50.886;4.700;2022-07-06T02:17:50;3.63;;;2.67;;
8993;SDS011;4532;50.886;4.700;2022-07-06T02:20:18;3.67;;;2.13;;
8993;SDS011;4532;50.886;4.700;2022-07-06T02:22:45;3.35;;;2.10;;
8993;SDS011;4532;50.886;4.700;2022-07-06T02:25:12;3.90;;;2.30;;
8993;SDS011;4532;50.886;4.700;2022-07-06T02:27:39;2.77;;;2.10;;
8993;SDS011;4532;50.886;4.700;2022-07-06T02:30:07;5.03;;;2.13;;
8993;SDS011;4532;50.886;4.700;2022-07-06T02:32:34;3.57;;;1.80;;
8993;SDS011;4532;50.886;4.700;2022-07-06T02:35:01;3.13;;;2.08;;
8993;SDS011;4532;50.886;4.700;2022-07-06T02:37:29;2.85;;;2.03;;
8993;SDS011;4532;50.886;4.700;2022-07-06T02:39:56;3.45;;;1.90;;
8993;SDS011;4532;50.886;4.700;2022-07-06T02:42:23;2.10;;;1.90;;
8993;SDS011;4532;50.886;4.700;2022-07-06T02:44:53;4.82;;;2.13;;
8993;SDS011;4532;50.886;4.700;2022-07-06T02:47:20;3.00;;;2.10;;
8993;SDS011;4532;50.886;4.700;2022-07-06T02:49:48;2.83;;;2.53;;
8993;SDS011;4532;50.886;4.700;2022-07-06T02:52:19;2.93;;;1.97;;
8993;SDS011;4532;50.886;4.700;2022-07-06T02:54:48;2.90;;;1.97;;
8993;SDS011;4532;50.886;4.700;2022-07-06T02:57:18;5.55;;;2.20;;
8993;SDS011;4532;50.886;4.700;2022-07-06T02:59:48;2.65;;;2.25;;
8993;SDS011;4532;50.886;4.700;2022-07-06T03:02:16;3.80;;;2.10;;
8993;SDS011;4532;50.886;4.700;2022-07-06T03:04:44;3.50;;;2.20;;
8993;SDS011;4532;50.886;4.700;2022-07-06T03:07:11;5.10;;;2.70;;
8993;SDS011;4532;50.886;4.700;2022-07-06T03:09:43;4.00;;;2.10;;
8993;SDS011;4532;50.886;4.700;2022-07-06T03:12:10;3.70;;;2.10;;
8993;SDS011;4532;50.886;4.700;2022-07-06T03:14:40;4.03;;;2.00;;
8993;SDS011;4532;50.886;4.700;2022-07-06T03:17:08;5.13;;;2.10;;
8993;SDS011;4532;50.886;4.700;2022-07-06T03:19:36;4.63;;;2.33;;
8993;SDS011;4532;50.886;4.700;2022-07-06T03:22:03;2.90;;;2.17;;
8993;SDS011;4532;50.886;4.700;2022-07-06T03:24:34;5.97;;;2.40;;
8993;SDS011;4532;50.886;4.700;2022-07-06T03:27:02;4.07;;;2.30;;
8993;SDS011;4532;50.886;4.700;2022-07-06T03:29:31;8.80;;;2.20;;
8993;SDS011;4532;50.886;4.700;2022-07-06T03:31:59;3.22;;;2.15;;
8993;SDS011;4532;50.886;4.700;2022-07-06T03:34:26;2.87;;;2.30;;
8993;SDS011;4532;50.886;4.700;2022-07-06T03:36:56;4.07;;;2.47;;
8993;SDS011;4532;50.886;4.700;2022-07-06T03:39:23;3.28;;;2.10;;
8993;SDS011;4532;50.886;4.700;2022-07-06T03:41:50;3.47;;;2.30;;
8993;SDS011;4532;50.886;4.700;2022-07-06T03:44:17;2.63;;;2.20;;
8993;SDS011;4532;50.886;4.700;2022-07-06T03:46:47;4.50;;;2.37;;
8993;SDS011;4532;50.886;4.700;2022-07-06T03:49:14;2.47;;;2.20;;
8993;SDS011;4532;50.886;4.700;2022-07-06T03:51:46;4.00;;;2.13;;
8993;SDS011;4532;50.886;4.700;2022-07-06T03:54:18;3.03;;;2.27;;
8993;SDS011;4532;50.886;4.700;2022-07-06T03:56:45;3.37;;;2.27;;
8993;SDS011;4532;50.886;4.700;2022-07-06T03:59:13;4.90;;;2.50;;
8993;SDS011;4532;50.886;4.700;2022-07-06T04:01:40;3.87;;;2.30;;
8993;SDS011;4532;50.886;4.700;2022-07-06T04:04:08;3.33;;;2.17;;
8993;SDS011;4532;50.886;4.700;2022-07-06T04:06:35;4.07;;;2.70;;
8993;SDS011;4532;50.886;4.700;2022-07-06T04:09:02;4.27;;;2.10;;
8993;SDS011;4532;50.886;4.700;2022-07-06T04:11:29;3.97;;;2.20;;
8993;SDS011;4532;50.886;4.700;2022-07-06T04:13:57;7.10;;;2.57;;
8993;SDS011;4532;50.886;4.700;2022-07-06T04:16:26;3.80;;;2.40;;
8993;SDS011;4532;50.886;4.700;2022-07-06T04:18:54;8.07;;;2.47;;
8993;SDS011;4532;50.886;4.700;2022-07-06T04:21:21;4.73;;;2.50;;
8993;SDS011;4532;50.886;4.700;2022-07-06T04:23:50;3.60;;;2.50;;
8993;SDS011;4532;50.886;4.700;2022-07-06T04:26:20;3.10;;;2.10;;
8993;SDS011;4532;50.886;4.700;2022-07-06T04:28:48;5.07;;;2.63;;
8993;SDS011;4532;50.886;4.700;2022-07-06T04:31:15;3.33;;;2.60;;
8993;SDS011;4532;50.886;4.700;2022-07-06T04:33:44;8.27;;;3.37;;
8993;SDS011;4532;50.886;4.700;2022-07-06T04:36:14;4.67;;;2.17;;
8993;SDS011;4532;50.886;4.700;2022-07-06T04:38:41;7.03;;;2.80;;
8993;SDS011;4532;50.886;4.700;2022-07-06T04:41:08;4.03;;;2.53;;
8993;SDS011;4532;50.886;4.700;2022-07-06T04:43:41;6.07;;;2.63;;
8993;SDS011;4532;50.886;4.700;2022-07-06T04:46:11;3.60;;;2.50;;
8993;SDS011;4532;50.886;4.700;2022-07-06T04:48:41;6.23;;;2.70;;
8993;SDS011;4532;50.886;4.700;2022-07-06T04:51:10;4.95;;;2.70;;
8993;SDS011;4532;50.886;4.700;2022-07-06T04:53:40;5.70;;;3.10;;
8993;SDS011;4532;50.886;4.700;2022-07-06T04:56:07;5.20;;;2.77;;
8993;SDS011;4532;50.886;4.700;2022-07-06T04:58:35;4.07;;;3.03;;
8993;SDS011;4532;50.886;4.700;2022-07-06T05:01:04;8.00;;;3.07;;
8993;SDS011;4532;50.886;4.700;2022-07-06T05:03:34;5.03;;;2.77;;
8993;SDS011;4532;50.886;4.700;2022-07-06T05:06:07;5.35;;;2.78;;
8993;SDS011;4532;50.886;4.700;2022-07-06T05:08:35;3.53;;;2.57;;
8993;SDS011;4532;50.886;4.700;2022-07-06T05:11:02;6.03;;;2.80;;
8993;SDS011;4532;50.886;4.700;2022-07-06T05:13:29;3.43;;;2.50;;
8993;SDS011;4532;50.886;4.700;2022-07-06T05:15:59;3.50;;;2.30;;
8993;SDS011;4532;50.886;4.700;2022-07-06T05:18:26;9.45;;;3.88;;
8993;SDS011;4532;50.886;4.700;2022-07-06T05:20:57;7.00;;;2.93;;
8993;SDS011;4532;50.886;4.700;2022-07-06T05:23:24;4.10;;;2.60;;
8993;SDS011;4532;50.886;4.700;2022-07-06T05:25:51;4.38;;;2.95;;
8993;SDS011;4532;50.886;4.700;2022-07-06T05:28:19;6.53;;;3.10;;
8993;SDS011;4532;50.886;4.700;2022-07-06T05:30:46;6.43;;;2.80;;
8993;SDS011;4532;50.886;4.700;2022-07-06T05:33:14;4.33;;;3.20;;
8993;SDS011;4532;50.886;4.700;2022-07-06T05:35:41;3.78;;;2.90;;
8993;SDS011;4532;50.886;4.700;2022-07-06T05:38:20;6.72;;;3.20;;
8993;SDS011;4532;50.886;4.700;2022-07-06T05:40:48;6.10;;;2.80;;
8993;SDS011;4532;50.886;4.700;2022-07-06T05:43:15;4.32;;;2.65;;
8993;SDS011;4532;50.886;4.700;2022-07-06T05:45:45;6.25;;;2.83;;
8993;SDS011;4532;50.886;4.700;2022-07-06T05:48:15;5.63;;;3.00;;
8993;SDS011;4532;50.886;4.700;2022-07-06T05:51:01;5.13;;;3.13;;
8993;SDS011;4532;50.886;4.700;2022-07-06T05:53:28;3.10;;;2.80;;
8993;SDS011;4532;50.886;4.700;2022-07-06T05:55:57;5.47;;;3.03;;
8993;SDS011;4532;50.886;4.700;2022-07-06T05:58:25;4.75;;;3.22;;
8993;SDS011;4532;50.886;4.700;2022-07-06T06:00:53;8.70;;;3.00;;
8993;SDS011;4532;50.886;4.700;2022-07-06T06:03:20;8.60;;;3.47;;
8993;SDS011;4532;50.886;4.700;2022-07-06T06:05:50;11.27;;;3.40;;
8993;SDS011;4532;50.886;4.700;2022-07-06T06:08:20;5.38;;;3.20;;
8993;SDS011;4532;50.886;4.700;2022-07-06T06:10:47;6.82;;;3.30;;
8993;SDS011;4532;50.886;4.700;2022-07-06T06:13:15;7.97;;;3.50;;
8993;SDS011;4532;50.886;4.700;2022-07-06T06:15:42;36.80;;;7.45;;
8993;SDS011;4532;50.886;4.700;2022-07-06T06:18:12;19.90;;;5.70;;
8993;SDS011;4532;50.886;4.700;2022-07-06T06:20:42;15.20;;;4.72;;
8993;SDS011;4532;50.886;4.700;2022-07-06T06:23:09;7.57;;;3.38;;
8993;SDS011;4532;50.886;4.700;2022-07-06T06:25:46;6.78;;;3.30;;
8993;SDS011;4532;50.886;4.700;2022-07-06T06:28:13;8.05;;;3.58;;
8993;SDS011;4532;50.886;4.700;2022-07-06T06:30:40;8.32;;;3.15;;
8993;SDS011;4532;50.886;4.700;2022-07-06T06:33:16;12.70;;;3.58;;
8993;SDS011;4532;50.886;4.700;2022-07-06T06:35:45;11.32;;;3.80;;
8993;SDS011;4532;50.886;4.700;2022-07-06T06:38:17;10.60;;;4.00;;
8993;SDS011;4532;50.886;4.700;2022-07-06T06:40:46;12.10;;;4.15;;
8993;SDS011;4532;50.886;4.700;2022-07-06T06:43:17;6.63;;;3.30;;
8993;SDS011;4532;50.886;4.700;2022-07-06T06:45:44;11.30;;;3.40;;
8993;SDS011;4532;50.886;4.700;2022-07-06T06:48:13;9.75;;;4.00;;
8993;SDS011;4532;50.886;4.700;2022-07-06T06:50:44;12.30;;;4.25;;
8993;SDS011;4532;50.886;4.700;2022-07-06T06:53:17;5.50;;;3.00;;
8993;SDS011;4532;50.886;4.700;2022-07-06T06:55:44;7.47;;;3.55;;
8993;SDS011;4532;50.886;4.700;2022-07-06T06:58:11;20.33;;;5.18;;
8993;SDS011;4532;50.886;4.700;2022-07-06T07:00:38;13.55;;;4.50;;
8993;SDS011;4532;50.886;4.700;2022-07-06T07:03:09;6.93;;;3.38;;
8993;SDS011;4532;50.886;4.700;2022-07-06T07:05:37;7.35;;;2.67;;
8993;SDS011;4532;50.886;4.700;2022-07-06T07:08:04;4.10;;;2.53;;
8993;SDS011;4532;50.886;4.700;2022-07-06T07:10:34;7.90;;;3.25;;
8993;SDS011;4532;50.886;4.700;2022-07-06T07:13:03;3.60;;;1.88;;
8993;SDS011;4532;50.886;4.700;2022-07-06T07:15:31;10.75;;;2.92;;
8993;SDS011;4532;50.886;4.700;2022-07-06T07:17:58;3.88;;;2.30;;
8993;SDS011;4532;50.886;4.700;2022-07-06T07:20:26;4.93;;;2.40;;
8993;SDS011;4532;50.886;4.700;2022-07-06T07:22:56;3.50;;;2.30;;
8993;SDS011;4532;50.886;4.700;2022-07-06T07:25:24;4.63;;;2.20;;
8993;SDS011;4532;50.886;4.700;2022-07-06T07:27:54;4.13;;;1.67;;
8993;SDS011;4532;50.886;4.700;2022-07-06T07:30:21;3.03;;;1.00;;
8993;SDS011;4532;50.886;4.700;2022-07-06T07:32:48;3.55;;;1.25;;
8993;SDS011;4532;50.886;4.700;2022-07-06T07:35:18;2.00;;;1.02;;
8993;SDS011;4532;50.886;4.700;2022-07-06T07:37:45;4.60;;;1.30;;
8993;SDS011;4532;50.886;4.700;2022-07-06T07:40:13;2.28;;;0.85;;
8993;SDS011;4532;50.886;4.700;2022-07-06T07:42:40;3.33;;;1.27;;
8993;SDS011;4532;50.886;4.700;2022-07-06T07:45:07;5.47;;;1.17;;
8993;SDS011;4532;50.886;4.700;2022-07-06T07:47:38;6.35;;;1.92;;
8993;SDS011;4532;50.886;4.700;2022-07-06T07:50:05;4.38;;;1.15;;
8993;SDS011;4532;50.886;4.700;2022-07-06T07:52:33;2.28;;;1.30;;
8993;SDS011;4532;50.886;4.700;2022-07-06T07:55:01;3.50;;;1.20;;
8993;SDS011;4532;50.886;4.700;2022-07-06T07:57:53;3.55;;;0.90;;
8993;SDS011;4532;50.886;4.700;2022-07-06T08:00:20;3.95;;;1.30;;
8993;SDS011;4532;50.886;4.700;2022-07-06T08:02:53;1.30;;;0.75;;
8993;SDS011;4532;50.886;4.700;2022-07-06T08:05:23;5.07;;;1.33;;
8993;SDS011;4532;50.886;4.700;2022-07-06T08:07:50;1.75;;;0.88;;
8993;SDS011;4532;50.886;4.700;2022-07-06T08:10:18;4.70;;;1.45;;
8993;SDS011;4532;50.886;4.700;2022-07-06T08:12:46;2.45;;;1.20;;
8993;SDS011;4532;50.886;4.700;2022-07-06T08:15:13;2.53;;;1.20;;
8993;SDS011;4532;50.886;4.700;2022-07-06T08:17:40;1.83;;;0.90;;
8993;SDS011;4532;50.886;4.700;2022-07-06T08:20:13;3.72;;;1.02;;
8993;SDS011;4532;50.886;4.700;2022-07-06T08:22:43;5.07;;;1.30;;
8993;SDS011;4532;50.886;4.700;2022-07-06T08:25:11;2.80;;;1.33;;
8993;SDS011;4532;50.886;4.700;2022-07-06T08:27:38;4.25;;;1.15;;
8993;SDS011;4532;50.886;4.700;2022-07-06T08:30:08;3.45;;;1.10;;
8993;SDS011;4532;50.886;4.700;2022-07-06T08:32:37;1.85;;;0.82;;
8993;SDS011;4532;50.886;4.700;2022-07-06T08:35:28;5.47;;;1.20;;
8993;SDS011;4532;50.886;4.700;2022-07-06T08:37:55;2.75;;;1.02;;
8993;SDS011;4532;50.886;4.700;2022-07-06T08:40:26;4.00;;;0.90;;
8993;SDS011;4532;50.886;4.700;2022-07-06T08:42:58;3.08;;;1.10;;
8993;SDS011;4532;50.886;4.700;2022-07-06T08:45:26;6.57;;;1.50;;
8993;SDS011;4532;50.886;4.700;2022-07-06T08:47:58;3.67;;;1.30;;
8993;SDS011;4532;50.886;4.700;2022-07-06T08:50:33;2.47;;;1.20;;
8993;SDS011;4532;50.886;4.700;2022-07-06T08:53:00;4.75;;;1.20;;
8993;SDS011;4532;50.886;4.700;2022-07-06T08:55:28;2.33;;;1.20;;
8993;SDS011;4532;50.886;4.700;2022-07-06T08:57:56;5.70;;;1.50;;
8993;SDS011;4532;50.886;4.700;2022-07-06T09:00:24;2.95;;;1.35;;
8993;SDS011;4532;50.886;4.700;2022-07-06T09:02:54;3.25;;;1.00;;
8993;SDS011;4532;50.886;4.700;2022-07-06T09:05:23;3.45;;;1.33;;
8993;SDS011;4532;50.886;4.700;2022-07-06T09:07:53;4.90;;;1.10;;
8993;SDS011;4532;50.886;4.700;2022-07-06T09:10:26;2.40;;;1.10;;
8993;SDS011;4532;50.886;4.700;2022-07-06T09:12:55;4.38;;;1.02;;
8993;SDS011;4532;50.886;4.700;2022-07-06T09:15:30;3.15;;;1.00;;
8993;SDS011;4532;50.886;4.700;2022-07-06T09:17:57;3.10;;;0.98;;
8993;SDS011;4532;50.886;4.700;2022-07-06T09:20:27;3.15;;;1.08;;
8993;SDS011;4532;50.886;4.700;2022-07-06T09:22:58;3.72;;;1.27;;
8993;SDS011;4532;50.886;4.700;2022-07-06T09:25:29;2.53;;;1.10;;
8993;SDS011;4532;50.886;4.700;2022-07-06T09:28:00;1.90;;;1.00;;
8993;SDS011;4532;50.886;4.700;2022-07-06T09:30:28;2.67;;;1.25;;
8993;SDS011;4532;50.886;4.700;2022-07-06T09:32:57;9.07;;;1.98;;
8993;SDS011;4532;50.886;4.700;2022-07-06T09:35:26;3.00;;;1.15;;
8993;SDS011;4532;50.886;4.700;2022-07-06T09:38:09;3.08;;;0.95;;
8993;SDS011;4532;50.886;4.700;2022-07-06T09:40:44;4.80;;;1.15;;
8993;SDS011;4532;50.886;4.700;2022-07-06T09:43:16;3.47;;;1.60;;
8993;SDS011;4532;50.886;4.700;2022-07-06T09:50:46;8.63;;;1.75;;
8993;SDS011;4532;50.886;4.700;2022-07-06T09:53:17;5.50;;;1.20;;
8993;SDS011;4532;50.886;4.700;2022-07-06T09:55:50;4.43;;;1.23;;
8993;SDS011;4532;50.886;4.700;2022-07-06T09:58:20;2.55;;;0.85;;
8993;SDS011;4532;50.886;4.700;2022-07-06T10:01:09;1.70;;;0.70;;
8993;SDS011;4532;50.886;4.700;2022-07-06T10:03:37;1.80;;;0.80;;
8993;SDS011;4532;50.886;4.700;2022-07-06T10:06:05;2.50;;;1.02;;
8993;SDS011;4532;50.886;4.700;2022-07-06T10:08:33;2.28;;;0.88;;
8993;SDS011;4532;50.886;4.700;2022-07-06T10:11:02;2.38;;;1.05;;
8993;SDS011;4532;50.886;4.700;2022-07-06T10:13:30;2.65;;;1.00;;
8993;SDS011;4532;50.886;4.700;2022-07-06T10:16:01;2.42;;;1.15;;
8993;SDS011;4532;50.886;4.700;2022-07-06T10:18:31;3.38;;;1.35;;
8993;SDS011;4532;50.886;4.700;2022-07-06T10:21:01;3.70;;;1.02;;
8993;SDS011;4532;50.886;4.700;2022-07-06T10:23:28;1.75;;;0.98;;
8993;SDS011;4532;50.886;4.700;2022-07-06T10:25:56;2.90;;;1.10;;
8993;SDS011;4532;50.886;4.700;2022-07-06T10:28:27;3.15;;;1.05;;
8993;SDS011;4532;50.886;4.700;2022-07-06T10:30:55;3.47;;;1.00;;
8993;SDS011;4532;50.886;4.700;2022-07-06T10:33:24;1.80;;;1.00;;
8993;SDS011;4532;50.886;4.700;2022-07-06T10:35:56;6.25;;;1.08;;
8993;SDS011;4532;50.886;4.700;2022-07-06T10:38:31;6.57;;;1.27;;
8993;SDS011;4532;50.886;4.700;2022-07-06T10:41:03;3.47;;;1.70;;
8993;SDS011;4532;50.886;4.700;2022-07-06T10:46:06;2.70;;;1.38;;
8993;SDS011;4532;50.886;4.700;2022-07-06T10:48:43;10.02;;;2.03;;
8993;SDS011;4532;50.886;4.700;2022-07-06T10:51:12;8.20;;;1.33;;
8993;SDS011;4532;50.886;4.700;2022-07-06T10:53:59;3.20;;;1.15;;
8993;SDS011;4532;50.886;4.700;2022-07-06T10:56:36;3.00;;;1.35;;
8993;SDS011;4532;50.886;4.700;2022-07-06T10:59:11;3.28;;;1.20;;
8993;SDS011;4532;50.886;4.700;2022-07-06T11:01:40;2.75;;;0.82;;
8993;SDS011;4532;50.886;4.700;2022-07-06T11:04:13;1.90;;;1.00;;
8993;SDS011;4532;50.886;4.700;2022-07-06T11:06:46;2.20;;;1.15;;
8993;SDS011;4532;50.886;4.700;2022-07-06T11:09:14;2.05;;;1.30;;
8993;SDS011;4532;50.886;4.700;2022-07-06T11:11:42;3.47;;;1.10;;
8993;SDS011;4532;50.886;4.700;2022-07-06T11:14:13;2.10;;;0.95;;
8993;SDS011;4532;50.886;4.700;2022-07-06T11:19:18;3.25;;;1.02;;
8993;SDS011;4532;50.886;4.700;2022-07-06T11:21:53;2.40;;;1.10;;
8993;SDS011;4532;50.886;4.700;2022-07-06T11:24:32;2.28;;;1.00;;
8993;SDS011;4532;50.886;4.700;2022-07-06T11:27:00;5.40;;;1.85;;
8993;SDS011;4532;50.886;4.700;2022-07-06T11:29:31;1.83;;;0.90;;
8993;SDS011;4532;50.886;4.700;2022-07-06T11:32:01;1.98;;;1.50;;
8993;SDS011;4532;50.886;4.700;2022-07-06T11:34:31;3.10;;;1.13;;
8993;SDS011;4532;50.886;4.700;2022-07-06T11:39:32;3.10;;;1.33;;
8993;SDS011;4532;50.886;4.700;2022-07-06T11:42:02;3.92;;;1.60;;
8993;SDS011;4532;50.886;4.700;2022-07-06T11:44:31;3.92;;;1.40;;
8993;SDS011;4532;50.886;4.700;2022-07-06T11:46:58;2.90;;;1.50;;
8993;SDS011;4532;50.886;4.700;2022-07-06T11:49:33;3.53;;;1.48;;
8993;SDS011;4532;50.886;4.700;2022-07-06T11:52:08;2.50;;;1.30;;
8993;SDS011;4532;50.886;4.700;2022-07-06T11:54:44;3.83;;;1.30;;
8993;SDS011;4532;50.886;4.700;2022-07-06T11:57:14;5.72;;;1.40;;
8993;SDS011;4532;50.886;4.700;2022-07-06T11:59:44;5.78;;;1.98;;
8993;SDS011;4532;50.886;4.700;2022-07-06T12:02:16;6.13;;;1.75;;
8993;SDS011;4532;50.886;4.700;2022-07-06T12:04:45;4.00;;;1.73;;
8993;SDS011;4532;50.886;4.700;2022-07-06T12:07:13;3.30;;;1.27;;
8993;SDS011;4532;50.886;4.700;2022-07-06T12:09:45;5.38;;;1.65;;
8993;SDS011;4532;50.886;4.700;2022-07-06T12:12:13;5.28;;;1.55;;
8993;SDS011;4532;50.886;4.700;2022-07-06T12:14:46;3.00;;;1.35;;
8993;SDS011;4532;50.886;4.700;2022-07-06T12:17:14;2.17;;;1.33;;
8993;SDS011;4532;50.886;4.700;2022-07-06T12:19:42;3.15;;;1.52;;
8993;SDS011;4532;50.886;4.700;2022-07-06T12:22:10;2.65;;;1.48;;
8993;SDS011;4532;50.886;4.700;2022-07-06T12:24:42;3.65;;;1.23;;
8993;SDS011;4532;50.886;4.700;2022-07-06T12:27:14;4.63;;;1.80;;
8993;SDS011;4532;50.886;4.700;2022-07-06T12:29:46;2.10;;;1.30;;
8993;SDS011;4532;50.886;4.700;2022-07-06T12:32:16;4.45;;;1.67;;
8993;SDS011;4532;50.886;4.700;2022-07-06T12:34:47;4.10;;;1.58;;
8993;SDS011;4532;50.886;4.700;2022-07-06T12:37:14;4.72;;;2.00;;
8993;SDS011;4532;50.886;4.700;2022-07-06T12:39:46;4.65;;;1.70;;
8993;SDS011;4532;50.886;4.700;2022-07-06T12:42:15;4.15;;;1.95;;
8993;SDS011;4532;50.886;4.700;2022-07-06T12:47:21;3.60;;;1.58;;
8993;SDS011;4532;50.886;4.700;2022-07-06T12:50:07;2.40;;;1.40;;
8993;SDS011;4532;50.886;4.700;2022-07-06T12:52:38;3.55;;;1.80;;
8993;SDS011;4532;50.886;4.700;2022-07-06T12:55:06;4.75;;;1.75;;
8993;SDS011;4532;50.886;4.700;2022-07-06T12:57:46;3.78;;;1.80;;
8993;SDS011;4532;50.886;4.700;2022-07-06T13:00:15;3.55;;;2.10;;
8993;SDS011;4532;50.886;4.700;2022-07-06T13:02:46;7.38;;;2.78;;
8993;SDS011;4532;50.886;4.700;2022-07-06T13:05:35;5.60;;;2.15;;
8993;SDS011;4532;50.886;4.700;2022-07-06T13:08:05;3.00;;;1.80;;
8993;SDS011;4532;50.886;4.700;2022-07-06T13:10:36;4.10;;;2.00;;
8993;SDS011;4532;50.886;4.700;2022-07-06T13:13:03;3.75;;;2.15;;
8993;SDS011;4532;50.886;4.700;2022-07-06T13:15:34;6.22;;;2.28;;
8993;SDS011;4532;50.886;4.700;2022-07-06T13:18:01;3.20;;;1.75;;
8993;SDS011;4532;50.886;4.700;2022-07-06T13:20:28;6.65;;;2.30;;
8993;SDS011;4532;50.886;4.700;2022-07-06T13:22:59;4.78;;;1.90;;
8993;SDS011;4532;50.886;4.700;2022-07-06T13:25:26;3.75;;;2.03;;
8993;SDS011;4532;50.886;4.700;2022-07-06T13:27:53;13.48;;;2.38;;
8993;SDS011;4532;50.886;4.700;2022-07-06T13:30:20;10.15;;;3.25;;
8993;SDS011;4532;50.886;4.700;2022-07-06T13:32:48;4.47;;;2.40;;
8993;SDS011;4532;50.886;4.700;2022-07-06T13:35:17;3.45;;;1.90;;
8993;SDS011;4532;50.886;4.700;2022-07-06T13:37:45;5.40;;;2.10;;
8993;SDS011;4532;50.886;4.700;2022-07-06T13:40:16;3.38;;;1.83;;
8993;SDS011;4532;50.886;4.700;2022-07-06T13:42:43;4.57;;;1.77;;
8993;SDS011;4532;50.886;4.700;2022-07-06T13:45:10;2.63;;;1.67;;
8993;SDS011;4532;50.886;4.700;2022-07-06T13:47:37;5.85;;;2.00;;
8993;SDS011;4532;50.886;4.700;2022-07-06T13:50:04;4.35;;;1.92;;
8993;SDS011;4532;50.886;4.700;2022-07-06T13:52:34;3.92;;;1.70;;
8993;SDS011;4532;50.886;4.700;2022-07-06T13:55:02;5.05;;;2.10;;
8993;SDS011;4532;50.886;4.700;2022-07-06T13:57:35;3.22;;;1.80;;
8993;SDS011;4532;50.886;4.700;2022-07-06T14:00:04;4.93;;;1.60;;
8993;SDS011;4532;50.886;4.700;2022-07-06T14:02:32;3.92;;;1.98;;
8993;SDS011;4532;50.886;4.700;2022-07-06T14:05:07;4.68;;;1.63;;
8993;SDS011;4532;50.886;4.700;2022-07-06T14:07:35;2.95;;;1.40;;
8993;SDS011;4532;50.886;4.700;2022-07-06T14:10:03;2.70;;;1.27;;
8993;SDS011;4532;50.886;4.700;2022-07-06T14:12:33;4.72;;;1.42;;
8993;SDS011;4532;50.886;4.700;2022-07-06T14:15:03;4.18;;;1.73;;
8993;SDS011;4532;50.886;4.700;2022-07-06T14:17:31;3.50;;;1.88;;
8993;SDS011;4532;50.886;4.700;2022-07-06T14:19:58;2.47;;;1.25;;
8993;SDS011;4532;50.886;4.700;2022-07-06T14:22:27;4.95;;;1.83;;
8993;SDS011;4532;50.886;4.700;2022-07-06T14:24:55;2.88;;;1.35;;
8993;SDS011;4532;50.886;4.700;2022-07-06T14:27:26;3.78;;;1.35;;
8993;SDS011;4532;50.886;4.700;2022-07-06T14:29:54;3.63;;;1.60;;
8993;SDS011;4532;50.886;4.700;2022-07-06T14:32:21;2.85;;;1.40;;
8993;SDS011;4532;50.886;4.700;2022-07-06T14:34:48;3.83;;;1.30;;
8993;SDS011;4532;50.886;4.700;2022-07-06T14:37:16;2.15;;;1.33;;
8993;SDS011;4532;50.886;4.700;2022-07-06T14:39:46;2.40;;;1.40;;
8993;SDS011;4532;50.886;4.700;2022-07-06T14:42:15;5.47;;;1.73;;
8993;SDS011;4532;50.886;4.700;2022-07-06T14:44:43;4.45;;;1.58;;
8993;SDS011;4532;50.886;4.700;2022-07-06T14:47:10;3.88;;;1.40;;
8993;SDS011;4532;50.886;4.700;2022-07-06T14:49:37;1.95;;;1.27;;
8993;SDS011;4532;50.886;4.700;2022-07-06T14:52:05;3.38;;;1.15;;
8993;SDS011;4532;50.886;4.700;2022-07-06T14:54:32;2.05;;;1.30;;
8993;SDS011;4532;50.886;4.700;2022-07-06T14:56:59;2.88;;;1.10;;
8993;SDS011;4532;50.886;4.700;2022-07-06T14:59:27;2.05;;;1.20;;
8993;SDS011;4532;50.886;4.700;2022-07-06T15:01:56;1.83;;;1.25;;
8993;SDS011;4532;50.886;4.700;2022-07-06T15:04:27;4.93;;;1.13;;
8993;SDS011;4532;50.886;4.700;2022-07-06T15:06:59;4.10;;;1.23;;
8993;SDS011;4532;50.886;4.700;2022-07-06T15:09:28;4.93;;;1.40;;
8993;SDS011;4532;50.886;4.700;2022-07-06T15:11:57;6.18;;;1.50;;
8993;SDS011;4532;50.886;4.700;2022-07-06T15:14:24;5.65;;;1.58;;
8993;SDS011;4532;50.886;4.700;2022-07-06T15:16:54;2.42;;;1.15;;
8993;SDS011;4532;50.886;4.700;2022-07-06T15:19:22;2.58;;;1.10;;
8993;SDS011;4532;50.886;4.700;2022-07-06T15:21:50;2.15;;;1.23;;
8993;SDS011;4532;50.886;4.700;2022-07-06T15:24:19;4.40;;;1.50;;
8993;SDS011;4532;50.886;4.700;2022-07-06T15:26:50;5.95;;;1.88;;
8993;SDS011;4532;50.886;4.700;2022-07-06T15:29:19;3.78;;;1.63;;
8993;SDS011;4532;50.886;4.700;2022-07-06T15:31:49;3.65;;;1.60;;
8993;SDS011;4532;50.886;4.700;2022-07-06T15:34:19;3.55;;;1.60;;
8993;SDS011;4532;50.886;4.700;2022-07-06T15:36:49;2.55;;;1.55;;
8993;SDS011;4532;50.886;4.700;2022-07-06T15:39:16;2.20;;;1.30;;
8993;SDS011;4532;50.886;4.700;2022-07-06T15:41:46;3.97;;;1.30;;
8993;SDS011;4532;50.886;4.700;2022-07-06T15:44:13;2.70;;;1.42;;